Time,TemperatureF,DewpointF,PressureIn,WindDirection,WindDirectionDegrees,WindSpeedMPH,WindSpeedGustMPH,Humidity,HourlyPrecipIn,Conditions,Clouds,dailyrainin,SoftwareType,DateUTC
2013-05-18 00:01:00,46.4,39.6,30.16,East,90,0.0,0.0,77,0.00,CLR,,0.00,WeatherDisplay:10.37,2013-05-18 04:01:00,
2013-05-18 00:06:00,46.2,39.4,30.16,East,90,0.0,0.0,77,0.00,CLR,,0.00,WeatherDisplay:10.37,2013-05-18 04:06:00,
2013-05-18 00:11:00,46.2,39.7,30.16,East,90,0.0,0.0,78,0.00,CLR,,0.00,WeatherDisplay:10.37,2013-05-18 04:11:00,
2013-05-18 00:16:00,46.0,39.6,30.16,East,90,0.0,0.0,78,0.00,CLR,,0.00,WeatherDisplay:10.37,2013-05-18 04:16:00,
2013-05-18 00:21:00,45.9,39.4,30.16,East,90,0.0,0.0,78,0.00,CLR,,0.00,WeatherDisplay:10.37,2013-05-18 04:21:00,
2013-05-18 00:26:00,45.7,39.2,30.17,East,90,0.0,0.0,78,0.00,CLR,,0.00,WeatherDisplay:10.37,2013-05-18 04:26:00,
2013-05-18 00:31:00,45.7,39.5,30.16,East,90,0.0,0.0,79,0.00,CLR,,0.00,WeatherDisplay:10.37,2013-05-18 04:31:00,
2013-05-18 00:36:00,45.5,39.4,30.16,East,90,0.0,0.0,79,0.00,CLR,,0.00,WeatherDisplay:10.37,2013-05-18 04:36:00,
2013-05-18 00:41:00,45.5,39.7,30.16,East,90,0.0,0.0,80,0.00,CLR,,0.00,WeatherDisplay:10.37,2013-05-18 04:41:00,
2013-05-18 00:46:00,45.5,39.7,30.16,East,90,0.0,0.0,80,0.00,CLR,,0.00,WeatherDisplay:10.37,2013-05-18 04:46:00,
2013-05-18 00:51:00,45.3,39.5,30.17,South,180,0.0,0.0,80,0.00,CLR,,0.00,WeatherDisplay:10.37,2013-05-18 04:51:00,
2013-05-18 00:56:00,45.1,39.3,30.17,South,180,0.0,0.0,80,0.00,CLR,,0.00,WeatherDisplay:10.37,2013-05-18 04:56:00,
2013-05-18 01:01:00,45.1,39.3,30.17,West,270,0.0,0.2,80,0.00,CLR,,0.00,WeatherDisplay:10.37,2013-05-18 05:01:00,
2013-05-18 01:06:00,45.0,39.2,30.17,West,270,0.0,0.0,80,0.00,CLR,,0.00,WeatherDisplay:10.37,2013-05-18 05:06:00,
2013-05-18 01:11:00,45.0,39.5,30.17,West,270,0.0,0.0,81,0.00,CLR,,0.00,WeatherDisplay:10.37,2013-05-18 05:11:00,
2013-05-18 01:16:00,45.0,39.5,30.17,West,270,0.0,0.0,81,0.00,CLR,,0.00,WeatherDisplay:10.37,2013-05-18 05:16:00,
2013-05-18 01:21:00,45.0,39.5,30.17,WNW,292,0.0,0.0,81,0.00,CLR,,0.00,WeatherDisplay:10.37,2013-05-18 05:21:00,
2013-05-18 01:26:00,45.0,39.5,30.17,WNW,292,0.0,0.0,81,0.00,CLR,,0.00,WeatherDisplay:10.37,2013-05-18 05:26:00,
2013-05-18 01:31:00,45.0,39.5,30.17,WNW,292,0.0,0.0,81,0.00,CLR,,0.00,WeatherDisplay:10.37,2013-05-18 05:31:00,
2013-05-18 01:36:00,45.0,39.5,30.17,WNW,292,0.0,0.0,81,0.00,CLR,,0.00,WeatherDisplay:10.37,2013-05-18 05:36:00,
2013-05-18 01:41:00,44.8,39.3,30.17,WNW,292,0.0,0.0,81,0.00,CLR,,0.00,WeatherDisplay:10.37,2013-05-18 05:41:00,
2013-05-18 01:46:00,44.6,39.1,30.17,WNW,292,0.0,0.0,81,0.00,CLR,,0.00,WeatherDisplay:10.37,2013-05-18 05:46:00,
2013-05-18 01:51:00,44.6,39.1,30.17,WNW,292,0.0,0.0,81,0.00,CLR,,0.00,WeatherDisplay:10.37,2013-05-18 05:51:00,
2013-05-18 01:56:00,44.4,39.0,30.17,WNW,292,0.0,0.0,81,0.00,CLR,,0.00,WeatherDisplay:10.37,2013-05-18 05:56:00,
2013-05-18 02:01:00,44.4,39.0,30.17,WNW,292,0.0,0.0,81,0.00,CLR,,0.00,WeatherDisplay:10.37,2013-05-18 06:01:00,
2013-05-18 02:06:00,44.2,39.1,30.17,WNW,292,0.0,0.0,82,0.00,CLR,,0.00,WeatherDisplay:10.37,2013-05-18 06:06:00,
2013-05-18 02:11:00,44.2,39.1,30.16,WNW,292,0.0,0.0,82,0.00,CLR,,0.00,WeatherDisplay:10.37,2013-05-18 06:11:00,
2013-05-18 02:16:00,44.2,39.1,30.16,WNW,292,0.0,0.0,82,0.00,CLR,,0.00,WeatherDisplay:10.37,2013-05-18 06:16:00,
2013-05-18 02:21:00,44.1,38.9,30.16,WNW,292,0.0,0.0,82,0.00,CLR,,0.00,WeatherDisplay:10.37,2013-05-18 06:21:00,
2013-05-18 02:26:00,43.9,38.7,30.16,WNW,292,0.0,0.0,82,0.00,CLR,,0.00,WeatherDisplay:10.37,2013-05-18 06:26:00,
2013-05-18 02:31:00,43.9,38.7,30.16,WNW,292,0.0,0.0,82,0.00,CLR,,0.00,WeatherDisplay:10.37,2013-05-18 06:31:00,
2013-05-18 02:36:00,43.7,38.6,30.16,WNW,292,0.0,0.0,82,0.00,CLR,,0.00,WeatherDisplay:10.37,2013-05-18 06:36:00,
2013-05-18 02:41:00,43.5,38.4,30.16,WNW,292,0.0,0.0,82,0.00,CLR,,0.00,WeatherDisplay:10.37,2013-05-18 06:41:00,
2013-05-18 02:46:00,43.5,38.4,30.16,WNW,292,0.0,0.0,82,0.00,CLR,,0.00,WeatherDisplay:10.37,2013-05-18 06:46:00,
2013-05-18 02:51:00,43.5,38.7,30.16,WNW,292,0.0,0.0,83,0.00,CLR,,0.00,WeatherDisplay:10.37,2013-05-18 06:51:00,
2013-05-18 02:56:00,43.3,38.5,30.16,WNW,292,0.0,0.0,83,0.00,CLR,,0.00,WeatherDisplay:10.37,2013-05-18 06:56:00,
2013-05-18 03:01:00,43.3,38.5,30.16,WNW,292,0.0,0.0,83,0.00,CLR,,0.00,WeatherDisplay:10.37,2013-05-18 07:01:00,
2013-05-18 03:06:00,43.3,38.5,30.17,WNW,292,0.0,0.0,83,0.00,CLR,,0.00,WeatherDisplay:10.37,2013-05-18 07:06:00,
2013-05-18 03:11:00,43.3,38.8,30.16,WNW,292,0.0,0.0,84,0.00,CLR,,0.00,WeatherDisplay:10.37,2013-05-18 07:11:00,
2013-05-18 03:16:00,43.3,38.8,30.17,WNW,292,0.0,0.0,84,0.00,CLR,,0.00,WeatherDisplay:10.37,2013-05-18 07:16:00,
2013-05-18 03:21:00,43.2,38.3,30.17,WNW,292,0.0,0.0,83,0.00,CLR,,0.00,WeatherDisplay:10.37,2013-05-18 07:21:00,
2013-05-18 03:26:00,43.2,38.3,30.16,WNW,292,0.0,0.0,83,0.00,CLR,,0.00,WeatherDisplay:10.37,2013-05-18 07:26:00,
2013-05-18 03:31:00,43.2,38.7,30.17,WNW,292,0.0,0.0,84,0.00,CLR,,0.00,WeatherDisplay:10.37,2013-05-18 07:31:00,
2013-05-18 03:36:00,43.0,38.5,30.17,WNW,292,0.0,0.0,84,0.00,CLR,,0.00,WeatherDisplay:10.37,2013-05-18 07:36:00,
2013-05-18 03:41:00,42.8,38.3,30.17,WNW,292,0.0,0.0,84,0.00,CLR,,0.00,WeatherDisplay:10.37,2013-05-18 07:41:00,
2013-05-18 03:46:00,42.8,38.3,30.17,WNW,292,0.0,0.0,84,0.00,CLR,,0.00,WeatherDisplay:10.37,2013-05-18 07:46:00,
2013-05-18 03:51:00,42.6,38.1,30.17,WNW,292,0.0,0.0,84,0.00,CLR,,0.00,WeatherDisplay:10.37,2013-05-18 07:51:00,
2013-05-18 03:56:00,42.6,38.1,30.17,NW,315,0.0,0.0,84,0.00,CLR,,0.00,WeatherDisplay:10.37,2013-05-18 07:56:00,
2013-05-18 04:01:00,42.8,38.6,30.17,West,270,0.0,0.0,85,0.00,CLR,,0.00,WeatherDisplay:10.37,2013-05-18 08:01:00,
2013-05-18 04:06:00,43.0,38.8,30.17,West,270,0.0,0.0,85,0.00,CLR,,0.00,WeatherDisplay:10.37,2013-05-18 08:06:00,
2013-05-18 04:11:00,43.2,39.0,30.17,West,270,0.0,0.0,85,0.00,CLR,,0.00,WeatherDisplay:10.37,2013-05-18 08:11:00,
2013-05-18 04:16:00,43.3,39.1,30.18,West,270,0.0,0.0,85,0.00,CLR,,0.00,WeatherDisplay:10.37,2013-05-18 08:16:00,
2013-05-18 04:21:00,43.2,39.3,30.18,WNW,292,0.0,0.0,86,0.00,CLR,,0.00,WeatherDisplay:10.37,2013-05-18 08:21:00,
2013-05-18 04:26:00,43.2,39.0,30.18,WNW,292,0.0,0.0,85,0.00,CLR,,0.00,WeatherDisplay:10.37,2013-05-18 08:26:00,
2013-05-18 04:31:00,43.2,39.0,30.18,WNW,292,0.0,0.0,85,0.00,CLR,,0.00,WeatherDisplay:10.37,2013-05-18 08:31:00,
2013-05-18 04:36:00,43.0,38.8,30.18,WNW,292,0.0,0.0,85,0.00,CLR,,0.00,WeatherDisplay:10.37,2013-05-18 08:36:00,
2013-05-18 04:41:00,43.0,38.8,30.18,WNW,292,0.0,0.0,85,0.00,CLR,,0.00,WeatherDisplay:10.37,2013-05-18 08:41:00,
2013-05-18 04:46:00,43.0,39.1,30.18,WNW,292,0.0,0.0,86,0.00,CLR,,0.00,WeatherDisplay:10.37,2013-05-18 08:46:00,
2013-05-18 04:51:00,43.0,38.8,30.18,WNW,292,0.0,0.0,85,0.00,CLR,,0.00,WeatherDisplay:10.37,2013-05-18 08:51:00,
2013-05-18 04:56:00,42.8,38.9,30.18,WNW,292,0.0,0.0,86,0.00,CLR,,0.00,WeatherDisplay:10.37,2013-05-18 08:56:00,
2013-05-18 05:01:00,43.0,39.1,30.19,WNW,292,0.0,0.0,86,0.00,CLR,,0.00,WeatherDisplay:10.37,2013-05-18 09:01:00,
2013-05-18 05:06:00,43.0,39.1,30.19,WNW,292,0.0,0.0,86,0.00,CLR,,0.00,WeatherDisplay:10.37,2013-05-18 09:06:00,
2013-05-18 05:11:00,43.0,39.1,30.19,WNW,292,0.0,0.0,86,0.00,CLR,,0.00,WeatherDisplay:10.37,2013-05-18 09:11:00,
2013-05-18 05:16:00,42.8,38.9,30.20,WNW,292,0.0,0.0,86,0.00,CLR,,0.00,WeatherDisplay:10.37,2013-05-18 09:16:00,
2013-05-18 05:21:00,42.8,38.9,30.20,WNW,292,0.0,0.0,86,0.00,CLR,,0.00,WeatherDisplay:10.37,2013-05-18 09:21:00,
2013-05-18 05:26:00,42.8,38.9,30.20,WNW,292,0.0,0.0,86,0.00,CLR,,0.00,WeatherDisplay:10.37,2013-05-18 09:26:00,
2013-05-18 05:31:00,42.8,38.6,30.20,WNW,292,0.0,0.0,85,0.00,CLR,,0.00,WeatherDisplay:10.37,2013-05-18 09:31:00,
2013-05-18 05:36:00,43.0,38.8,30.20,WNW,292,0.0,0.0,85,0.00,CLR,,0.00,WeatherDisplay:10.37,2013-05-18 09:36:00,
2013-05-18 05:41:00,43.0,38.8,30.20,WNW,292,0.0,0.0,85,0.00,CLR,,0.00,WeatherDisplay:10.37,2013-05-18 09:41:00,
2013-05-18 05:46:00,43.2,39.0,30.20,WNW,292,0.0,0.0,85,0.00,CLR,,0.00,WeatherDisplay:10.37,2013-05-18 09:46:00,
2013-05-18 05:51:00,43.3,39.4,30.21,WNW,292,0.0,0.0,86,0.00,CLR,,0.00,WeatherDisplay:10.37,2013-05-18 09:51:00,
2013-05-18 05:56:00,43.5,39.6,30.21,WNW,292,0.0,0.0,86,0.00,CLR,,0.00,WeatherDisplay:10.37,2013-05-18 09:56:00,
2013-05-18 06:01:00,43.5,39.6,30.21,WNW,292,0.0,0.0,86,0.00,CLR,,0.00,WeatherDisplay:10.37,2013-05-18 10:01:00,
2013-05-18 06:06:00,43.9,40.3,30.21,WNW,292,0.0,0.0,87,0.00,CLR,,0.00,WeatherDisplay:10.37,2013-05-18 10:06:00,
2013-05-18 06:11:00,44.1,40.4,30.21,WNW,292,0.0,0.0,87,0.00,CLR,,0.00,WeatherDisplay:10.37,2013-05-18 10:11:00,
2013-05-18 06:16:00,44.4,40.8,30.21,WNW,292,0.0,0.0,87,0.00,CLR,,0.00,WeatherDisplay:10.37,2013-05-18 10:16:00,
2013-05-18 06:21:00,44.6,41.0,30.21,SW,225,0.0,0.0,87,0.00,CLR,,0.00,WeatherDisplay:10.37,2013-05-18 10:21:00,
2013-05-18 06:26:00,45.0,41.3,30.22,NNW,338,0.0,0.0,87,0.00,CLR,,0.00,WeatherDisplay:10.37,2013-05-18 10:26:00,
2013-05-18 06:31:00,45.3,41.7,30.22,SSW,202,0.0,0.0,87,0.00,CLR,,0.00,WeatherDisplay:10.37,2013-05-18 10:31:00,
2013-05-18 06:36:00,45.7,42.0,30.22,SSW,202,0.0,0.0,87,0.00,CLR,,0.00,WeatherDisplay:10.37,2013-05-18 10:36:00,
2013-05-18 06:41:00,46.4,42.7,30.22,WSW,248,0.0,0.0,87,0.00,CLR,,0.00,WeatherDisplay:10.37,2013-05-18 10:41:00,
2013-05-18 06:46:00,46.9,43.3,30.22,West,270,0.0,0.0,87,0.00,CLR,,0.00,WeatherDisplay:10.37,2013-05-18 10:46:00,
2013-05-18 06:51:00,47.5,43.8,30.23,SW,225,0.0,0.0,87,0.00,CLR,,0.00,WeatherDisplay:10.37,2013-05-18 10:51:00,
2013-05-18 06:56:00,48.2,44.5,30.23,SW,225,0.0,0.0,87,0.00,CLR,,0.00,WeatherDisplay:10.37,2013-05-18 10:56:00,
2013-05-18 07:01:00,48.9,45.2,30.23,West,270,0.0,0.0,87,0.00,CLR,,0.00,WeatherDisplay:10.37,2013-05-18 11:01:00,
2013-05-18 07:06:00,49.6,45.9,30.23,WSW,248,0.9,2.3,87,0.00,CLR,,0.00,WeatherDisplay:10.37,2013-05-18 11:06:00,
2013-05-18 07:11:00,50.4,46.6,30.24,WNW,292,0.0,1.1,87,0.00,CLR,,0.00,WeatherDisplay:10.37,2013-05-18 11:11:00,
2013-05-18 07:16:00,50.9,47.5,30.23,WSW,248,0.0,0.0,88,0.00,CLR,,0.00,WeatherDisplay:10.37,2013-05-18 11:16:00,
2013-05-18 07:21:00,51.8,48.4,30.23,WSW,248,0.5,1.1,88,0.00,CLR,,0.00,WeatherDisplay:10.37,2013-05-18 11:21:00,
2013-05-18 07:26:00,52.5,48.5,30.23,South,180,2.2,2.2,86,0.00,CLR,,0.00,WeatherDisplay:10.37,2013-05-18 11:26:00,
2013-05-18 07:31:00,53.4,49.3,30.24,West,270,0.7,0.7,86,0.00,CLR,,0.00,WeatherDisplay:10.37,2013-05-18 11:31:00,
2013-05-18 07:36:00,54.1,49.4,30.24,SW,225,0.0,2.3,84,0.00,CLR,,0.00,WeatherDisplay:10.37,2013-05-18 11:36:00,
2013-05-18 07:41:00,54.9,49.8,30.24,NW,315,0.2,1.1,83,0.00,CLR,,0.00,WeatherDisplay:10.37,2013-05-18 11:41:00,
2013-05-18 07:46:00,55.6,49.8,30.24,SSW,202,1.8,1.8,81,0.00,CLR,,0.00,WeatherDisplay:10.37,2013-05-18 11:46:00,
2013-05-18 07:51:00,56.1,50.4,30.24,West,270,0.2,1.1,81,0.00,CLR,,0.00,WeatherDisplay:10.37,2013-05-18 11:51:00,
2013-05-18 07:56:00,56.8,50.4,30.24,WSW,248,1.4,1.4,79,0.00,CLR,,0.00,WeatherDisplay:10.37,2013-05-18 11:56:00,
2013-05-18 08:01:00,57.4,50.9,30.24,West,270,1.4,2.3,79,0.00,CLR,,0.00,WeatherDisplay:10.37,2013-05-18 12:01:00,
2013-05-18 08:06:00,57.9,51.1,30.24,West,270,0.5,2.3,78,0.00,CLR,,0.00,WeatherDisplay:10.37,2013-05-18 12:06:00,
2013-05-18 08:11:00,58.6,51.1,30.24,NW,315,0.5,1.1,76,0.00,CLR,,0.00,WeatherDisplay:10.37,2013-05-18 12:11:00,
2013-05-18 08:16:00,59.0,51.1,30.24,South,180,1.1,2.3,75,0.00,CLR,,0.00,WeatherDisplay:10.37,2013-05-18 12:16:00,
2013-05-18 08:21:00,59.7,51.0,30.24,WSW,248,0.9,1.1,73,0.00,CLR,,0.00,WeatherDisplay:10.37,2013-05-18 12:21:00,
2013-05-18 08:26:00,60.1,51.0,30.24,WNW,292,0.7,2.3,72,0.00,CLR,,0.00,WeatherDisplay:10.37,2013-05-18 12:26:00,
2013-05-18 08:31:00,60.3,50.4,30.24,SSE,158,1.1,2.3,70,0.00,CLR,,0.00,WeatherDisplay:10.37,2013-05-18 12:31:00,
2013-05-18 08:36:00,61.0,51.5,30.24,SSW,202,0.9,1.1,71,0.00,CLR,,0.00,WeatherDisplay:10.37,2013-05-18 12:36:00,
2013-05-18 08:41:00,61.7,51.4,30.24,WSW,248,1.6,1.6,69,0.00,CLR,,0.00,WeatherDisplay:10.37,2013-05-18 12:41:00,
2013-05-18 08:46:00,62.2,51.9,30.25,SSW,202,1.8,1.8,69,0.00,CLR,,0.00,WeatherDisplay:10.37,2013-05-18 12:46:00,
2013-05-18 08:51:00,62.8,50.8,30.25,NW,315,2.4,2.4,65,0.00,CLR,,0.00,WeatherDisplay:10.37,2013-05-18 12:51:00,
2013-05-18 08:56:00,63.1,51.6,30.24,SW,225,1.8,1.8,66,0.00,CLR,,0.00,WeatherDisplay:10.37,2013-05-18 12:56:00,
2013-05-18 09:01:00,63.9,52.3,30.25,South,180,1.4,1.4,66,0.00,CLR,,0.00,WeatherDisplay:10.37,2013-05-18 13:01:00,
2013-05-18 09:06:00,64.4,52.4,30.25,SW,225,1.1,1.1,65,0.00,CLR,,0.00,WeatherDisplay:10.37,2013-05-18 13:06:00,
2013-05-18 09:11:00,64.8,50.1,30.25,SSW,202,0.5,3.5,59,0.00,CLR,,0.00,WeatherDisplay:10.37,2013-05-18 13:11:00,
2013-05-18 09:16:00,65.1,50.9,30.25,WNW,292,1.1,1.1,60,0.00,CLR,,0.00,WeatherDisplay:10.37,2013-05-18 13:16:00,
2013-05-18 09:21:00,65.3,50.6,30.25,SW,225,1.1,1.1,59,0.00,CLR,,0.00,WeatherDisplay:10.37,2013-05-18 13:21:00,
2013-05-18 09:26:00,65.7,49.0,30.25,NW,315,0.5,1.1,55,0.00,CLR,,0.00,WeatherDisplay:10.37,2013-05-18 13:26:00,
2013-05-18 09:31:00,65.8,51.1,30.25,SW,225,0.7,3.5,59,0.00,CLR,,0.00,WeatherDisplay:10.37,2013-05-18 13:31:00,
2013-05-18 09:36:00,66.2,49.6,30.25,South,180,0.9,1.1,55,0.00,CLR,,0.00,WeatherDisplay:10.37,2013-05-18 13:36:00,
2013-05-18 09:41:00,66.6,50.4,30.25,NNW,338,0.9,2.3,56,0.00,CLR,,0.00,WeatherDisplay:10.37,2013-05-18 13:41:00,
2013-05-18 09:46:00,66.9,50.7,30.25,East,90,0.5,1.1,56,0.00,CLR,,0.00,WeatherDisplay:10.37,2013-05-18 13:46:00,
2013-05-18 09:51:00,67.6,51.4,30.25,SSW,202,1.4,3.5,56,0.00,CLR,,0.00,WeatherDisplay:10.37,2013-05-18 13:51:00,
2013-05-18 09:56:00,68.4,51.1,30.25,West,270,0.9,2.3,54,0.00,CLR,,0.00,WeatherDisplay:10.37,2013-05-18 13:56:00,
2013-05-18 10:01:00,68.7,50.4,30.25,SW,225,0.7,4.6,52,0.00,CLR,,0.00,WeatherDisplay:10.37,2013-05-18 14:01:00,
2013-05-18 10:06:00,68.7,50.4,30.25,SSW,202,5.2,5.2,52,0.00,CLR,,0.00,WeatherDisplay:10.37,2013-05-18 14:06:00,
2013-05-18 10:11:00,69.4,51.6,30.25,SSW,202,3.3,3.5,53,0.00,CLR,,0.00,WeatherDisplay:10.37,2013-05-18 14:11:00,
2013-05-18 10:16:00,69.6,51.7,30.25,SSW,202,1.8,5.8,53,0.00,CLR,,0.00,WeatherDisplay:10.37,2013-05-18 14:16:00,
2013-05-18 10:21:00,69.6,54.2,30.25,SW,225,5.4,5.8,58,0.00,CLR,,0.00,WeatherDisplay:10.37,2013-05-18 14:21:00,
2013-05-18 10:26:00,69.6,54.7,30.25,SSW,202,2.4,6.9,59,0.00,CLR,,0.00,WeatherDisplay:10.37,2013-05-18 14:26:00,
2013-05-18 10:31:00,69.4,54.5,30.25,SW,225,2.4,6.9,59,0.00,CLR,,0.00,WeatherDisplay:10.37,2013-05-18 14:31:00,
2013-05-18 10:36:00,69.1,54.1,30.25,South,180,3.8,4.6,59,0.00,CLR,,0.00,WeatherDisplay:10.37,2013-05-18 14:36:00,
2013-05-18 10:41:00,69.1,55.1,30.26,South,180,1.8,4.0,61,0.00,CLR,,0.00,WeatherDisplay:10.37,2013-05-18 14:41:00,
2013-05-18 10:46:00,69.1,55.1,30.25,South,180,2.6,3.5,61,0.00,CLR,,0.00,WeatherDisplay:10.37,2013-05-18 14:46:00,
2013-05-18 10:51:00,69.1,54.1,30.25,SW,225,2.4,5.8,59,0.00,CLR,,0.00,WeatherDisplay:10.37,2013-05-18 14:51:00,
2013-05-18 10:56:00,69.4,54.5,30.25,SW,225,4.9,4.9,59,0.00,CLR,,0.00,WeatherDisplay:10.37,2013-05-18 14:56:00,
2013-05-18 11:01:00,69.8,54.8,30.25,SSW,202,3.6,5.8,59,0.00,CLR,,0.00,WeatherDisplay:10.37,2013-05-18 15:01:00,
2013-05-18 11:06:00,70.2,55.2,30.25,SSW,202,2.0,8.1,59,0.00,CLR,,0.00,WeatherDisplay:10.37,2013-05-18 15:06:00,
2013-05-18 11:11:00,70.3,54.9,30.25,SSW,202,6.9,6.9,58,0.00,CLR,,0.00,WeatherDisplay:10.37,2013-05-18 15:11:00,
2013-05-18 11:16:00,69.3,53.4,30.25,SE,135,3.1,4.6,57,0.00,CLR,,0.00,WeatherDisplay:10.37,2013-05-18 15:16:00,
2013-05-18 11:21:00,67.6,52.3,30.24,South,180,2.2,5.8,58,0.00,CLR,,0.00,WeatherDisplay:10.37,2013-05-18 15:21:00,
2013-05-18 11:26:00,66.6,52.2,30.24,SSE,158,4.0,4.6,60,0.00,CLR,,0.00,WeatherDisplay:10.37,2013-05-18 15:26:00,
2013-05-18 11:31:00,66.2,52.8,30.24,SSE,158,2.4,2.4,62,0.00,CLR,,0.00,WeatherDisplay:10.37,2013-05-18 15:31:00,
2013-05-18 11:36:00,66.0,52.6,30.24,SE,135,2.2,2.3,62,0.00,CLR,,0.00,WeatherDisplay:10.37,2013-05-18 15:36:00,
2013-05-18 11:41:00,65.7,52.3,30.24,SSE,158,3.1,3.1,62,0.00,CLR,,0.00,WeatherDisplay:10.37,2013-05-18 15:41:00,
2013-05-18 11:46:00,65.5,51.7,30.25,SSE,158,1.1,3.5,61,0.00,CLR,,0.00,WeatherDisplay:10.37,2013-05-18 15:46:00,
2013-05-18 11:51:00,65.3,51.9,30.24,South,180,4.3,4.6,62,0.00,CLR,,0.00,WeatherDisplay:10.37,2013-05-18 15:51:00,
2013-05-18 11:56:00,66.4,53.4,30.24,WSW,248,5.4,5.4,63,0.00,CLR,,0.00,WeatherDisplay:10.37,2013-05-18 15:56:00,
2013-05-18 12:01:00,67.6,53.3,30.24,WSW,248,0.2,2.3,60,0.00,CLR,,0.00,WeatherDisplay:10.37,2013-05-18 16:01:00,
2013-05-18 12:06:00,68.7,53.8,30.24,SSE,158,2.4,4.6,59,0.00,CLR,,0.00,WeatherDisplay:10.37,2013-05-18 16:06:00,
2013-05-18 12:11:00,68.4,52.5,30.24,SSW,202,2.0,4.6,57,0.00,CLR,,0.00,WeatherDisplay:10.37,2013-05-18 16:11:00,
2013-05-18 12:16:00,67.6,51.4,30.24,South,180,2.4,5.8,56,0.00,CLR,,0.00,WeatherDisplay:10.37,2013-05-18 16:16:00,
2013-05-18 12:21:00,67.1,51.4,30.24,SSW,202,1.8,4.6,57,0.00,CLR,,0.00,WeatherDisplay:10.37,2013-05-18 16:21:00,
2013-05-18 12:26:00,66.9,52.6,30.24,SSE,158,3.3,4.6,60,0.00,CLR,,0.00,WeatherDisplay:10.37,2013-05-18 16:26:00,
2013-05-18 12:31:00,67.3,52.9,30.24,SSW,202,2.0,5.8,60,0.00,CLR,,0.00,WeatherDisplay:10.37,2013-05-18 16:31:00,
2013-05-18 12:36:00,67.1,52.7,30.24,WSW,248,2.6,5.8,60,0.00,CLR,,0.00,WeatherDisplay:10.37,2013-05-18 16:36:00,
2013-05-18 12:41:00,67.8,53.9,30.24,SSW,202,2.4,5.8,61,0.00,CLR,,0.00,WeatherDisplay:10.37,2013-05-18 16:41:00,
2013-05-18 12:46:00,68.7,54.3,30.24,SSW,202,4.7,5.8,60,0.00,CLR,,0.00,WeatherDisplay:10.37,2013-05-18 16:46:00,
2013-05-18 12:51:00,69.3,53.4,30.24,SSW,202,4.7,6.9,57,0.00,CLR,,0.00,WeatherDisplay:10.37,2013-05-18 16:51:00,
2013-05-18 12:56:00,69.1,53.7,30.24,SW,225,3.6,3.6,58,0.00,CLR,,0.00,WeatherDisplay:10.37,2013-05-18 16:56:00,
2013-05-18 13:01:00,69.4,53.5,30.24,SW,225,6.0,9.2,57,0.00,CLR,,0.00,WeatherDisplay:10.37,2013-05-18 17:01:00,
2013-05-18 13:06:00,70.2,52.7,30.24,WSW,248,8.5,11.5,54,0.00,CLR,,0.00,WeatherDisplay:10.37,2013-05-18 17:06:00,
2013-05-18 13:11:00,70.2,53.2,30.24,SSW,202,1.8,4.6,55,0.00,CLR,,0.00,WeatherDisplay:10.37,2013-05-18 17:11:00,
2013-05-18 13:16:00,70.9,53.9,30.23,SW,225,1.1,9.2,55,0.00,CLR,,0.00,WeatherDisplay:10.37,2013-05-18 17:16:00,
2013-05-18 13:21:00,71.2,53.2,30.24,South,180,4.7,5.8,53,0.00,CLR,,0.00,WeatherDisplay:10.37,2013-05-18 17:21:00,
2013-05-18 13:26:00,71.4,53.4,30.23,SW,225,4.5,4.6,53,0.00,CLR,,0.00,WeatherDisplay:10.37,2013-05-18 17:26:00,
2013-05-18 13:31:00,71.6,53.6,30.23,SSE,158,2.6,2.6,53,0.00,CLR,,0.00,WeatherDisplay:10.37,2013-05-18 17:31:00,
2013-05-18 13:36:00,71.4,50.7,30.23,SSW,202,1.8,5.8,48,0.00,CLR,,0.00,WeatherDisplay:10.37,2013-05-18 17:36:00,
2013-05-18 13:41:00,71.6,52.5,30.23,SW,225,1.6,5.8,51,0.00,CLR,,0.00,WeatherDisplay:10.37,2013-05-18 17:41:00,
2013-05-18 13:46:00,71.6,52.0,30.23,SE,135,4.3,5.2,50,0.00,CLR,,0.00,WeatherDisplay:10.37,2013-05-18 17:46:00,
2013-05-18 13:51:00,70.9,50.8,30.23,SSW,202,2.9,6.9,49,0.00,CLR,,0.00,WeatherDisplay:10.37,2013-05-18 17:51:00,
2013-05-18 13:56:00,70.2,50.6,30.23,South,180,2.6,3.5,50,0.00,CLR,,0.00,WeatherDisplay:10.37,2013-05-18 17:56:00,
2013-05-18 14:01:00,69.4,50.0,30.23,SSW,202,5.6,5.6,50,0.00,CLR,,0.00,WeatherDisplay:10.37,2013-05-18 18:01:00,
2013-05-18 14:06:00,68.9,49.5,30.23,SW,225,2.4,4.6,50,0.00,CLR,,0.00,WeatherDisplay:10.37,2013-05-18 18:06:00,
2013-05-18 14:11:00,68.7,49.3,30.23,SSW,202,6.7,6.7,50,0.00,CLR,,0.00,WeatherDisplay:10.37,2013-05-18 18:11:00,
2013-05-18 14:16:00,68.5,49.7,30.23,SSW,202,3.3,6.9,51,0.00,CLR,,0.00,WeatherDisplay:10.37,2013-05-18 18:16:00,
2013-05-18 14:21:00,69.4,51.0,30.23,SSW,202,2.0,4.6,52,0.00,CLR,,0.00,WeatherDisplay:10.37,2013-05-18 18:21:00,
2013-05-18 14:26:00,70.5,52.0,30.23,SSW,202,3.8,3.8,52,0.00,CLR,,0.00,WeatherDisplay:10.37,2013-05-18 18:26:00,
2013-05-18 14:31:00,70.9,51.8,30.22,SW,225,6.0,6.0,51,0.00,CLR,,0.00,WeatherDisplay:10.37,2013-05-18 18:31:00,
2013-05-18 14:36:00,70.7,50.0,30.23,SW,225,0.7,4.6,48,0.00,CLR,,0.00,WeatherDisplay:10.37,2013-05-18 18:36:00,
2013-05-18 14:41:00,70.0,48.8,30.23,SSW,202,2.4,5.8,47,0.00,CLR,,0.00,WeatherDisplay:10.37,2013-05-18 18:41:00,
2013-05-18 14:46:00,69.4,48.3,30.23,South,180,9.7,9.7,47,0.00,CLR,,0.00,WeatherDisplay:10.37,2013-05-18 18:46:00,
2013-05-18 14:51:00,69.1,48.0,30.23,SW,225,7.6,7.6,47,0.00,CLR,,0.00,WeatherDisplay:10.37,2013-05-18 18:51:00,
2013-05-18 14:56:00,68.9,48.9,30.23,SSW,202,4.7,4.7,49,0.00,CLR,,0.00,WeatherDisplay:10.37,2013-05-18 18:56:00,
2013-05-18 15:01:00,69.4,50.0,30.22,South,180,4.3,6.9,50,0.00,CLR,,0.00,WeatherDisplay:10.37,2013-05-18 19:01:00,
2013-05-18 15:06:00,69.8,50.9,30.22,SW,225,3.1,4.6,51,0.00,CLR,,0.00,WeatherDisplay:10.37,2013-05-18 19:06:00,
2013-05-18 15:11:00,70.5,51.0,30.22,SSW,202,5.4,5.4,50,0.00,CLR,,0.00,WeatherDisplay:10.37,2013-05-18 19:11:00,
2013-05-18 15:16:00,70.7,50.6,30.22,SW,225,4.7,5.8,49,0.00,CLR,,0.00,WeatherDisplay:10.37,2013-05-18 19:16:00,
2013-05-18 15:21:00,70.3,50.8,30.22,South,180,0.5,2.3,50,0.00,CLR,,0.00,WeatherDisplay:10.37,2013-05-18 19:21:00,
2013-05-18 15:26:00,70.5,52.0,30.22,SSW,202,7.6,7.6,52,0.00,CLR,,0.00,WeatherDisplay:10.37,2013-05-18 19:26:00,
2013-05-18 15:31:00,70.5,51.5,30.23,SSW,202,2.2,6.9,51,0.00,CLR,,0.00,WeatherDisplay:10.37,2013-05-18 19:31:00,
2013-05-18 15:36:00,70.2,51.2,30.22,SW,225,3.6,4.6,51,0.00,CLR,,0.00,WeatherDisplay:10.37,2013-05-18 19:36:00,
2013-05-18 15:41:00,69.6,50.7,30.22,SSW,202,3.3,6.9,51,0.00,CLR,,0.00,WeatherDisplay:10.37,2013-05-18 19:41:00,
2013-05-18 15:46:00,69.3,50.9,30.23,SSW,202,2.4,5.8,52,0.00,CLR,,0.00,WeatherDisplay:10.37,2013-05-18 19:46:00,
2013-05-18 15:51:00,68.7,50.9,30.23,West,270,5.9,5.9,53,0.00,CLR,,0.00,WeatherDisplay:10.37,2013-05-18 19:51:00,
2013-05-18 15:56:00,68.9,51.1,30.23,South,180,2.6,10.4,53,0.00,CLR,,0.00,WeatherDisplay:10.37,2013-05-18 19:56:00,
2013-05-18 16:01:00,68.9,51.1,30.23,West,270,2.6,5.8,53,0.00,CLR,,0.00,WeatherDisplay:10.37,2013-05-18 20:01:00,
2013-05-18 16:06:00,68.5,50.2,30.23,WSW,248,0.7,3.5,52,0.00,CLR,,0.00,WeatherDisplay:10.37,2013-05-18 20:06:00,
2013-05-18 16:11:00,68.4,49.5,30.23,WNW,292,0.5,2.3,51,0.00,CLR,,0.00,WeatherDisplay:10.37,2013-05-18 20:11:00,
2013-05-18 16:16:00,68.4,50.0,30.23,West,270,0.9,2.3,52,0.00,CLR,,0.00,WeatherDisplay:10.37,2013-05-18 20:16:00,
2013-05-18 16:21:00,68.5,49.7,30.23,West,270,1.8,3.5,51,0.00,CLR,,0.00,WeatherDisplay:10.37,2013-05-18 20:21:00,
2013-05-18 16:26:00,68.5,49.7,30.23,SW,225,1.1,2.3,51,0.00,CLR,,0.00,WeatherDisplay:10.37,2013-05-18 20:26:00,
2013-05-18 16:31:00,68.9,50.0,30.23,SSW,202,2.6,5.8,51,0.00,CLR,,0.00,WeatherDisplay:10.37,2013-05-18 20:31:00,
2013-05-18 16:36:00,69.1,49.7,30.23,South,180,0.9,5.8,50,0.00,CLR,,0.00,WeatherDisplay:10.37,2013-05-18 20:36:00,
2013-05-18 16:41:00,69.1,50.2,30.23,West,270,2.0,5.8,51,0.00,CLR,,0.00,WeatherDisplay:10.37,2013-05-18 20:41:00,
2013-05-18 16:46:00,68.7,50.9,30.24,South,180,3.1,9.2,53,0.00,CLR,,0.00,WeatherDisplay:10.37,2013-05-18 20:46:00,
2013-05-18 16:51:00,68.4,51.1,30.24,SW,225,8.5,8.5,54,0.00,CLR,,0.00,WeatherDisplay:10.37,2013-05-18 20:51:00,
2013-05-18 16:56:00,68.0,51.7,30.24,SSW,202,9.4,9.4,56,0.00,CLR,,0.00,WeatherDisplay:10.37,2013-05-18 20:56:00,
2013-05-18 17:01:00,67.3,51.5,30.24,SSW,202,2.2,4.6,57,0.00,CLR,,0.00,WeatherDisplay:10.37,2013-05-18 21:01:00,
2013-05-18 17:06:00,66.6,51.8,30.24,SW,225,1.6,8.1,59,0.00,CLR,,0.00,WeatherDisplay:10.37,2013-05-18 21:06:00,
2013-05-18 17:11:00,65.8,51.6,30.24,South,180,2.4,5.8,60,0.00,CLR,,0.00,WeatherDisplay:10.37,2013-05-18 21:11:00,
2013-05-18 17:16:00,65.1,51.3,30.24,SSW,202,3.3,4.6,61,0.00,CLR,,0.00,WeatherDisplay:10.37,2013-05-18 21:16:00,
2013-05-18 17:21:00,64.8,51.9,30.24,SSW,202,4.7,4.7,63,0.00,CLR,,0.00,WeatherDisplay:10.37,2013-05-18 21:21:00,
2013-05-18 17:26:00,64.2,51.8,30.24,SSW,202,3.3,5.8,64,0.00,CLR,,0.00,WeatherDisplay:10.37,2013-05-18 21:26:00,
2013-05-18 17:31:00,63.7,51.7,30.24,SSW,202,2.9,4.6,65,0.00,CLR,,0.00,WeatherDisplay:10.37,2013-05-18 21:31:00,
2013-05-18 17:36:00,63.1,51.6,30.24,SSW,202,2.4,4.6,66,0.00,CLR,,0.00,WeatherDisplay:10.37,2013-05-18 21:36:00,
2013-05-18 17:41:00,62.8,51.2,30.24,SSW,202,0.7,8.1,66,0.00,CLR,,0.00,WeatherDisplay:10.37,2013-05-18 21:41:00,
2013-05-18 17:46:00,62.6,51.1,30.24,SSW,202,6.9,6.9,66,0.00,CLR,,0.00,WeatherDisplay:10.37,2013-05-18 21:46:00,
2013-05-18 17:51:00,62.4,51.3,30.24,SSW,202,2.4,5.8,67,0.00,CLR,,0.00,WeatherDisplay:10.37,2013-05-18 21:51:00,
2013-05-18 17:56:00,62.6,51.1,30.24,SSW,202,2.9,4.6,66,0.00,CLR,,0.00,WeatherDisplay:10.37,2013-05-18 21:56:00,
2013-05-18 18:01:00,63.0,51.4,30.24,WSW,248,3.1,3.5,66,0.00,CLR,,0.00,WeatherDisplay:10.37,2013-05-18 22:01:00,
2013-05-18 18:06:00,63.0,51.4,30.24,SW,225,4.9,5.8,66,0.00,CLR,,0.00,WeatherDisplay:10.37,2013-05-18 22:06:00,
2013-05-18 18:11:00,62.4,50.9,30.24,South,180,2.4,5.8,66,0.00,CLR,,0.00,WeatherDisplay:10.37,2013-05-18 22:11:00,
2013-05-18 18:16:00,62.2,51.1,30.24,SSW,202,9.2,9.2,67,0.00,CLR,,0.00,WeatherDisplay:10.37,2013-05-18 22:16:00,
2013-05-18 18:21:00,62.2,51.1,30.24,SW,225,3.1,4.6,67,0.00,CLR,,0.00,WeatherDisplay:10.37,2013-05-18 22:21:00,
2013-05-18 18:26:00,62.4,51.3,30.24,SW,225,4.5,8.1,67,0.00,CLR,,0.00,WeatherDisplay:10.37,2013-05-18 22:26:00,
2013-05-18 18:31:00,62.2,50.7,30.24,SSE,158,3.3,3.3,66,0.00,CLR,,0.00,WeatherDisplay:10.37,2013-05-18 22:31:00,
2013-05-18 18:36:00,62.1,51.0,30.24,WSW,248,1.1,4.6,67,0.00,CLR,,0.00,WeatherDisplay:10.37,2013-05-18 22:36:00,
2013-05-18 18:41:00,61.7,51.0,30.24,SW,225,1.1,3.5,68,0.00,CLR,,0.00,WeatherDisplay:10.37,2013-05-18 22:41:00,
2013-05-18 18:46:00,61.3,50.7,30.24,SW,225,2.0,4.6,68,0.00,CLR,,0.00,WeatherDisplay:10.37,2013-05-18 22:46:00,
2013-05-18 18:51:00,61.2,50.5,30.24,West,270,4.3,4.6,68,0.00,CLR,,0.00,WeatherDisplay:10.37,2013-05-18 22:51:00,
2013-05-18 18:56:00,60.8,50.2,30.24,SSW,202,4.0,4.0,68,0.00,CLR,,0.00,WeatherDisplay:10.37,2013-05-18 22:56:00,
2013-05-18 19:01:00,60.8,50.2,30.24,SW,225,1.8,1.8,68,0.00,CLR,,0.00,WeatherDisplay:10.37,2013-05-18 23:01:00,
2013-05-18 19:06:00,60.6,50.4,30.24,SSE,158,0.9,5.8,69,0.00,CLR,,0.00,WeatherDisplay:10.37,2013-05-18 23:06:00,
2013-05-18 19:11:00,60.3,50.0,30.24,South,180,4.7,4.7,69,0.00,CLR,,0.00,WeatherDisplay:10.37,2013-05-18 23:11:00,
2013-05-18 19:16:00,59.9,50.1,30.24,SSW,202,0.9,5.8,70,0.00,CLR,,0.00,WeatherDisplay:10.37,2013-05-18 23:16:00,
2013-05-18 19:21:00,59.7,50.3,30.24,South,180,1.4,2.3,71,0.00,CLR,,0.00,WeatherDisplay:10.37,2013-05-18 23:21:00,
2013-05-18 19:26:00,59.5,50.1,30.25,SW,225,2.0,4.6,71,0.00,CLR,,0.00,WeatherDisplay:10.37,2013-05-18 23:26:00,
2013-05-18 19:31:00,59.2,50.2,30.25,SW,225,1.8,2.3,72,0.00,CLR,,0.00,WeatherDisplay:10.37,2013-05-18 23:31:00,
2013-05-18 19:36:00,59.0,50.0,30.25,SSW,202,1.4,3.5,72,0.00,CLR,,0.00,WeatherDisplay:10.37,2013-05-18 23:36:00,
2013-05-18 19:41:00,58.6,50.0,30.25,SW,225,3.3,3.5,73,0.00,CLR,,0.00,WeatherDisplay:10.37,2013-05-18 23:41:00,
2013-05-18 19:46:00,58.6,50.0,30.25,SSW,202,2.4,2.4,73,0.00,CLR,,0.00,WeatherDisplay:10.37,2013-05-18 23:46:00,
2013-05-18 19:51:00,58.3,49.7,30.25,SSW,202,4.5,4.5,73,0.00,CLR,,0.00,WeatherDisplay:10.37,2013-05-18 23:51:00,
2013-05-18 19:56:00,57.9,49.3,30.24,NW,315,0.5,1.1,73,0.00,CLR,,0.00,WeatherDisplay:10.37,2013-05-18 23:56:00,
2013-05-18 20:01:00,57.7,49.1,30.25,SW,225,1.1,1.1,73,0.00,CLR,,0.00,WeatherDisplay:10.37,2013-05-19 00:01:00,
2013-05-18 20:06:00,57.6,49.0,30.25,SSW,202,1.1,1.1,73,0.00,CLR,,0.00,WeatherDisplay:10.37,2013-05-19 00:06:00,
2013-05-18 20:11:00,57.2,48.6,30.25,SSW,202,1.1,1.1,73,0.00,CLR,,0.00,WeatherDisplay:10.37,2013-05-19 00:11:00,
2013-05-18 20:16:00,57.0,48.8,30.25,SSW,202,0.9,2.3,74,0.00,CLR,,0.00,WeatherDisplay:10.37,2013-05-19 00:16:00,
2013-05-18 20:21:00,56.7,49.2,30.25,SSE,158,2.6,2.6,76,0.00,CLR,,0.00,WeatherDisplay:10.37,2013-05-19 00:21:00,
2013-05-18 20:26:00,56.5,48.6,30.25,SW,225,1.6,1.6,75,0.00,CLR,,0.00,WeatherDisplay:10.37,2013-05-19 00:26:00,
2013-05-18 20:31:00,56.3,49.2,30.25,SSW,202,2.4,2.4,77,0.00,CLR,,0.00,WeatherDisplay:10.37,2013-05-19 00:31:00,
2013-05-18 20:36:00,56.1,49.7,30.25,SSW,202,1.4,3.5,79,0.00,CLR,,0.00,WeatherDisplay:10.37,2013-05-19 00:36:00,
2013-05-18 20:41:00,56.1,49.0,30.24,SW,225,2.4,3.5,77,0.00,CLR,,0.00,WeatherDisplay:10.37,2013-05-19 00:41:00,
2013-05-18 20:46:00,55.9,48.8,30.25,WSW,248,1.1,2.3,77,0.00,CLR,,0.00,WeatherDisplay:10.37,2013-05-19 00:46:00,
2013-05-18 20:51:00,55.8,49.0,30.25,SSW,202,0.2,3.5,78,0.00,CLR,,0.00,WeatherDisplay:10.37,2013-05-19 00:51:00,
2013-05-18 20:56:00,55.8,49.3,30.25,SSW,202,1.1,1.1,79,0.00,CLR,,0.00,WeatherDisplay:10.37,2013-05-19 00:56:00,
2013-05-18 21:01:00,55.8,49.3,30.25,WSW,248,3.6,3.6,79,0.00,CLR,,0.00,WeatherDisplay:10.37,2013-05-19 01:01:00,
2013-05-18 21:06:00,55.6,49.2,30.25,West,270,2.4,2.4,79,0.00,CLR,,0.00,WeatherDisplay:10.37,2013-05-19 01:06:00,
2013-05-18 21:11:00,55.4,48.7,30.25,WSW,248,0.5,4.6,78,0.00,CLR,,0.00,WeatherDisplay:10.37,2013-05-19 01:11:00,
2013-05-18 21:16:00,55.4,48.7,30.26,WNW,292,0.9,1.1,78,0.00,CLR,,0.00,WeatherDisplay:10.37,2013-05-19 01:16:00,
2013-05-18 21:21:00,55.2,48.8,30.25,WSW,248,0.9,3.5,79,0.00,CLR,,0.00,WeatherDisplay:10.37,2013-05-19 01:21:00,
2013-05-18 21:26:00,55.2,49.5,30.25,WSW,248,0.9,4.6,81,0.00,CLR,,0.00,WeatherDisplay:10.37,2013-05-19 01:26:00,
2013-05-18 21:31:00,55.2,48.8,30.26,WSW,248,1.8,1.8,79,0.00,CLR,,0.00,WeatherDisplay:10.37,2013-05-19 01:31:00,
2013-05-18 21:36:00,55.0,49.3,30.26,WNW,292,1.4,2.3,81,0.00,CLR,,0.00,WeatherDisplay:10.37,2013-05-19 01:36:00,
2013-05-18 21:41:00,55.0,49.0,30.26,SSW,202,1.4,3.5,80,0.00,CLR,,0.00,WeatherDisplay:10.37,2013-05-19 01:41:00,
2013-05-18 21:46:00,55.0,49.6,30.26,SW,225,2.0,3.5,82,0.00,CLR,,0.00,WeatherDisplay:10.37,2013-05-19 01:46:00,
2013-05-18 21:51:00,55.0,49.3,30.25,WSW,248,0.5,2.3,81,0.00,CLR,,0.00,WeatherDisplay:10.37,2013-05-19 01:51:00,
2013-05-18 21:56:00,55.0,49.6,30.25,SW,225,1.8,5.8,82,0.00,CLR,,0.00,WeatherDisplay:10.37,2013-05-19 01:56:00,
2013-05-18 22:01:00,54.9,49.1,30.25,SW,225,1.1,3.5,81,0.00,CLR,,0.00,WeatherDisplay:10.37,2013-05-19 02:01:00,
2013-05-18 22:06:00,54.9,49.8,30.25,WSW,248,0.5,2.3,83,0.00,CLR,,0.00,WeatherDisplay:10.37,2013-05-19 02:06:00,
2013-05-18 22:11:00,54.9,49.1,30.25,SSW,202,3.6,3.6,81,0.00,CLR,,0.00,WeatherDisplay:10.37,2013-05-19 02:11:00,
2013-05-18 22:16:00,54.7,49.0,30.25,SW,225,1.6,1.6,81,0.00,CLR,,0.00,WeatherDisplay:10.37,2013-05-19 02:16:00,
2013-05-18 22:21:00,54.7,49.0,30.24,SW,225,1.6,3.5,81,0.00,CLR,,0.00,WeatherDisplay:10.37,2013-05-19 02:21:00,
2013-05-18 22:26:00,54.5,48.8,30.24,SSW,202,2.2,2.3,81,0.00,CLR,,0.00,WeatherDisplay:10.37,2013-05-19 02:26:00,
2013-05-18 22:31:00,54.5,49.4,30.24,WSW,248,0.5,6.9,83,0.00,CLR,,0.00,WeatherDisplay:10.37,2013-05-19 02:31:00,
2013-05-18 22:36:00,54.5,49.4,30.24,WSW,248,0.2,2.3,83,0.00,CLR,,0.00,WeatherDisplay:10.37,2013-05-19 02:36:00,
2013-05-18 22:41:00,54.3,48.9,30.24,WSW,248,2.0,2.0,82,0.00,CLR,,0.00,WeatherDisplay:10.37,2013-05-19 02:41:00,
2013-05-18 22:46:00,54.3,49.6,30.24,SSW,202,4.7,4.7,84,0.00,CLR,,0.00,WeatherDisplay:10.37,2013-05-19 02:46:00,
2013-05-18 22:51:00,54.3,49.3,30.24,South,180,0.7,2.3,83,0.00,CLR,,0.00,WeatherDisplay:10.37,2013-05-19 02:51:00,
2013-05-18 22:56:00,54.1,49.1,30.24,WSW,248,0.5,2.3,83,0.00,CLR,,0.00,WeatherDisplay:10.37,2013-05-19 02:56:00,
2013-05-18 23:01:00,54.0,48.9,30.25,WSW,248,1.1,1.1,83,0.00,CLR,,0.00,WeatherDisplay:10.37,2013-05-19 03:01:00,
2013-05-18 23:06:00,53.8,48.7,30.25,SW,225,0.2,2.3,83,0.00,CLR,,0.00,WeatherDisplay:10.37,2013-05-19 03:06:00,
2013-05-18 23:11:00,53.8,48.7,30.25,SW,225,0.5,1.1,83,0.00,CLR,,0.00,WeatherDisplay:10.37,2013-05-19 03:11:00,
2013-05-18 23:16:00,53.6,48.6,30.25,WSW,248,0.5,2.3,83,0.00,CLR,,0.00,WeatherDisplay:10.37,2013-05-19 03:16:00,
2013-05-18 23:21:00,53.6,48.6,30.25,SW,225,0.0,2.3,83,0.00,CLR,,0.00,WeatherDisplay:10.37,2013-05-19 03:21:00,
2013-05-18 23:26:00,53.4,48.4,30.24,WSW,248,2.4,2.4,83,0.00,CLR,,0.00,WeatherDisplay:10.37,2013-05-19 03:26:00,
2013-05-18 23:31:00,53.2,48.5,30.25,SW,225,0.2,1.1,84,0.00,CLR,,0.00,WeatherDisplay:10.37,2013-05-19 03:31:00,
2013-05-18 23:36:00,53.2,48.5,30.25,SSW,202,0.2,2.3,84,0.00,CLR,,0.00,WeatherDisplay:10.37,2013-05-19 03:36:00,
2013-05-18 23:41:00,53.1,48.0,30.25,West,270,0.0,1.1,83,0.00,CLR,,0.00,WeatherDisplay:10.37,2013-05-19 03:41:00,
2013-05-18 23:46:00,52.9,47.9,30.25,WSW,248,0.5,0.0,83,0.00,CLR,,0.00,WeatherDisplay:10.37,2013-05-19 03:46:00,
2013-05-18 23:51:00,52.9,48.2,30.25,WSW,248,1.6,2.3,84,0.00,CLR,,0.00,WeatherDisplay:10.37,2013-05-19 03:51:00,
2013-05-18 23:56:00,52.9,48.2,30.25,SSW,202,2.4,2.4,84,0.00,CLR,,0.00,WeatherDisplay:10.37,2013-05-19 03:56:00,